Tropical Cyclones
[Index]
Main Index Home Page Stock Weather Photos Extreme Storms Discussion Storm News and Storm Chasing Reports Tropical Cyclones / Hurricanes / Typhoons Weather Data and Links Wild Fires / Bushfires Weather Observation Techniques Weather Picture Catalogue Tornado Pictures and Reports Stock Video Footage and DVDs for sale
Season 2013-2014 Tropical Cyclone GILLIAN Track Map
Season 2013-2014 Summaries: [BoM-AU] [JTWC-AU] [JTWC-SIO] [JTWC-SPAC] [JTWC-SH]
<<- Previous TC | BoM 2013-2014 Season | Next TC ->>

click for intensity scale information  Lat/long Grid: Show Hide

 Date Labels: Show Hide

Bureau of Meteorology Tropical Cyclone Data

Name: GILLIAN
Number: 978 / 201314_14

06 Mar 2014 00:00 UTC to 26 Mar 2014 00:00 UTC

    date/time    lat    long    hPa   cat  kts
2014-03-06 00   10.0   139.0                            
2014-03-06 06    9.5   138.7                            
2014-03-06 12   10.0   139.0                            
2014-03-06 18    9.5   138.0                            
2014-03-07 00    9.3   138.2                            
2014-03-07 06    9.8   138.7   1003         25          
2014-03-07 12    9.6   138.5   1004         25          
2014-03-07 18    9.9   138.8   1003         25          
2014-03-08 00   10.2   139.0   1001         30          
2014-03-08 06   10.5   139.5    998         35          
2014-03-08 12   10.9   140.1    998         35          
2014-03-08 18   11.7   140.2    998         35          
2014-03-09 00   12.4   140.1    995    1    40          
2014-03-09 06   12.7   140.2    993    1    40          
2014-03-09 12   12.8   141.0    997         40          
2014-03-09 18   13.2   141.2    997         40          
2014-03-10 00   13.6   141.3    999         35          
2014-03-10 06   14.0   141.4   1000         30          
2014-03-10 12   13.7   141.9   1004         25          
2014-03-10 18   13.6   141.8   1004         25          
2014-03-11 00   14.0   141.6   1002         25          
2014-03-11 06   14.0   141.8   1000         25          
2014-03-11 12   14.2   141.8   1004         25          
2014-03-11 18   14.5   141.8   1005         20          
2014-03-12 00   14.8   141.8   1008         15          
2014-03-12 06   14.9   140.0   1005         20          
2014-03-12 12   15.6   139.5   1007         20          
2014-03-12 18   15.3   138.8   1005         20          
2014-03-13 00   14.6   138.0   1006         25          
2014-03-13 06   14.7   138.0   1003         25          
2014-03-13 12   14.7   138.6   1006         25          
2014-03-13 18   14.6   138.8   1004         25          
2014-03-14 00   14.0   139.3   1002         30          
2014-03-14 06   13.5   139.5    997         35          
2014-03-14 12   13.1   139.9   1001         35          
2014-03-14 18   12.8   139.7    999         35          
2014-03-15 00   11.6   139.4    999         35          
2014-03-15 06   11.4   139.1   1002         25          
2014-03-15 12   11.0   138.6   1004         25          
2014-03-15 18   11.0   138.6   1003         25          
2014-03-16 00   10.8   138.4   1003         25          
2014-03-16 06   10.4   137.8   1004         25          
2014-03-16 12   10.1   136.9   1005         25          
2014-03-16 18   10.2   136.3   1004         25          
2014-03-17 00   10.3   136.0   1006         25          
2014-03-17 06   10.2   135.3   1004         25          
2014-03-17 12   10.2   134.2   1004         30          
2014-03-17 18    9.9   132.8   1004         30          
2014-03-18 00    9.6   131.1   1006         30          
2014-03-18 06    9.6   129.7   1002         30          
2014-03-18 12    9.6   128.4   1004         35          
2014-03-18 18    9.0   125.9   1006         30          
2014-03-19 00    8.6   124.0   1006         25          
2014-03-19 06    7.8   122.5   1006         25          
2014-03-19 12    7.6   120.7   1006         20          
2014-03-19 18    7.8   118.8   1006         20          
2014-03-20 00    8.0   117.0   1006         20          
2014-03-20 06    8.8   115.1   1006         20          
2014-03-20 12    9.1   113.8   1006         20          
2014-03-20 18    9.3   112.3   1006         25          
2014-03-21 00    9.2   110.5   1006         25          
2014-03-21 06    9.4   108.4   1004         30          
2014-03-21 12    9.6   107.2    999         35          
2014-03-21 18    9.8   106.1    998         35          
2014-03-22 00   10.0   105.4    992    1    40          
2014-03-22 06   10.5   105.0    987    1    50          
2014-03-22 12   11.4   104.7    977    2    65          
2014-03-22 18   12.2   104.4    966    3    80          
2014-03-23 00   12.9   104.1    960    3    90          
2014-03-23 06   13.7   103.8    960    3    90          
2014-03-23 12   14.6   103.7    939    4    110          
2014-03-23 18   15.4   103.6    939    4    110          
2014-03-24 00   16.2   103.6    937    4    110          
2014-03-24 06   17.2   103.6    955    4    90          
2014-03-24 12   18.0   103.6    967    3    80          
2014-03-24 18   18.6   103.7    969    3    75          
2014-03-25 00   19.0   103.8    982    2    60          
2014-03-25 06   19.7   103.8    985    2    50          
2014-03-25 12   20.4   103.7    988    1    50          
2014-03-25 18   21.1   103.4    996         40          
2014-03-26 00   21.8   102.7   1000         35          
Winds are 10-min average.

Tropical cyclone tracks developed by Michael Bath using data from the Bureau of Meteorology and Google Maps.


[Australian Severe Weather index] [Copyright Notice] [Email Contacts] [Search This Site] [Privacy Policy]
Document: tropical_cyclone_gillian.htm Updated: 29 June 2017